Time;durP1;ratioP1;P1;durP2;ratioP2;P2;SDS_P1;SDS_P2;PMS_P1;PMS_P2;Temp;Humidity;BMP_temperature;BMP_pressure;BME280_temperature;BME280_humidity;BME280_pressure;Samples;Min_cycle;Max_cycle;Signal;HPM_P1;HPM_P2
2022/01/06 00:01:39;;;;;;;11.10;3.88;;;;;;;6.24;81.06;100030.19;5008958;28;20029;-67
2022/01/06 00:04:04;;;;;;;8.02;2.95;;;;;;;6.27;79.85;100025.75;5008983;28;20064;-67
2022/01/06 00:06:32;;;;;;;7.93;2.78;;;;;;;6.25;79.08;100034.56;5008786;28;20045;-67
2022/01/06 00:08:59;;;;;;;5.43;2.30;;;;;;;6.24;79.21;100046.03;5008588;28;20029;-67
2022/01/06 00:11:25;;;;;;;5.47;3.10;;;;;;;6.17;79.08;100039.09;5008906;28;20056;-67
2022/01/06 00:16:38;;;;;;;6.85;2.38;;;;;;;6.16;79.89;100034.72;5009155;28;20042;-67
2022/01/06 00:24:18;;;;;;;4.35;2.25;;;;;;;6.08;80.39;100044.53;4992124;28;20117;-67
2022/01/06 00:26:44;;;;;;;6.80;2.60;;;;;;;5.96;79.70;100040.28;4971444;28;20092;-67
2022/01/06 00:29:09;;;;;;;8.73;2.90;;;;;;;6.07;79.50;100042.75;4988520;28;20038;-67
2022/01/06 00:31:35;;;;;;;7.88;3.35;;;;;;;6.01;79.46;100042.88;4998567;28;20054;-67
2022/01/06 00:34:01;;;;;;;6.72;2.67;;;;;;;5.97;79.90;100036.75;4988948;28;20035;-67
2022/01/06 00:36:27;;;;;;;11.70;2.88;;;;;;;5.93;80.39;100044.75;4989342;28;20446;-67
2022/01/06 00:38:52;;;;;;;6.82;3.20;;;;;;;5.98;80.59;100049.03;4991462;28;20021;-67
2022/01/06 00:41:18;;;;;;;7.53;3.70;;;;;;;6.04;80.59;100053.38;5008713;28;20061;-67
2022/01/06 00:43:43;;;;;;;5.97;2.10;;;;;;;6.05;81.20;100044.53;5003403;28;20121;-67
2022/01/06 00:46:09;;;;;;;5.22;2.80;;;;;;;6.09;80.47;100049.78;4988595;28;20393;-67
2022/01/06 00:48:34;;;;;;;9.52;3.88;;;;;;;5.74;80.73;99996.56;4989285;28;20030;-67
2022/01/06 00:51:00;;;;;;;8.20;3.58;;;;;;;5.98;82.08;100048.19;4990939;28;20050;-67
2022/01/06 00:53:25;;;;;;;10.30;3.75;;;;;;;6.08;82.11;100060.38;4993118;28;20445;-67
2022/01/06 00:55:50;;;;;;;5.72;2.90;;;;;;;6.09;82.28;100062.09;4992313;28;20026;-67
2022/01/06 00:58:16;;;;;;;6.05;2.72;;;;;;;5.98;82.09;100045.53;4992307;28;20042;-67
2022/01/06 01:00:42;;;;;;;6.65;3.20;;;;;;;6.06;83.27;100056.88;4994632;28;20371;-67
2022/01/06 01:03:33;;;;;;;7.40;3.50;;;;;;;6.15;83.85;100062.00;5001485;28;20038;-67
2022/01/06 01:06:01;;;;;;;9.35;4.70;;;;;;;6.21;83.76;100060.16;4990168;28;20053;-67
2022/01/06 01:08:27;;;;;;;8.45;3.22;;;;;;;6.19;84.65;100055.81;4992577;28;20126;-67
2022/01/06 01:10:55;;;;;;;11.23;3.30;;;;;;;6.22;85.13;100059.28;4992067;28;20137;-67
2022/01/06 01:13:28;;;;;;;6.18;3.20;;;;;;;6.21;84.64;100057.50;4974499;28;20129;-67
2022/01/06 01:15:58;;;;;;;11.65;4.22;;;;;;;6.20;85.16;100061.06;4992404;28;20113;-67
2022/01/06 01:18:27;;;;;;;10.50;4.03;;;;;;;6.16;85.11;100063.78;4991808;28;20034;-67
2022/01/06 01:20:53;;;;;;;6.63;2.92;;;;;;;6.12;85.37;100069.97;4996537;28;20454;-67
2022/01/06 01:23:21;;;;;;;9.85;3.55;;;;;;;6.00;85.05;100052.53;4993468;28;20121;-67
2022/01/06 01:25:46;;;;;;;7.78;3.38;;;;;;;6.03;85.51;100078.03;5011430;28;20036;-67
2022/01/06 01:28:14;;;;;;;9.13;3.22;;;;;;;5.96;85.89;100081.66;5011468;28;20025;-67
2022/01/06 01:31:12;;;;;;;7.00;2.60;;;;;;;5.95;85.92;100079.88;5011169;28;20490;-67
2022/01/06 01:33:25;;;;;;;6.03;3.03;;;;;;;5.74;87.17;100070.44;4996206;28;20053;-67
2022/01/06 01:35:51;;;;;;;7.40;2.80;;;;;;;5.85;87.62;100083.56;4991990;28;20117;-67
2022/01/06 01:38:16;;;;;;;6.57;2.83;;;;;;;5.80;87.99;100080.06;5009780;28;20566;-67
2022/01/06 01:40:42;;;;;;;4.45;2.60;;;;;;;5.76;88.74;100083.63;5011281;28;20026;-67
2022/01/06 01:43:07;;;;;;;6.07;2.63;;;;;;;5.78;89.23;100082.72;5011461;28;20034;-67
2022/01/06 01:45:34;;;;;;;6.03;2.90;;;;;;;5.70;89.20;100083.72;5011190;28;20105;-67
2022/01/06 01:48:05;;;;;;;8.10;3.22;;;;;;;5.69;89.38;100084.59;5010400;28;20021;-67
2022/01/06 01:50:30;;;;;;;7.90;2.92;;;;;;;5.75;90.38;100087.16;5012116;28;20093;-67
2022/01/06 01:52:57;;;;;;;6.90;2.67;;;;;;;5.74;90.39;100088.03;5011720;28;20100;-67
2022/01/06 01:55:26;;;;;;;13.05;3.15;;;;;;;5.75;89.89;100089.81;5011892;28;20029;-67
2022/01/06 01:57:54;;;;;;;6.32;3.05;;;;;;;5.63;90.37;100076.75;5011445;28;20040;-67
2022/01/06 02:00:22;;;;;;;7.10;3.15;;;;;;;5.81;90.68;100102.91;5011844;28;20034;-67
2022/01/06 02:02:47;;;;;;;4.65;2.88;;;;;;;5.85;90.88;100096.75;5011138;28;20497;-67
2022/01/06 02:05:13;;;;;;;4.55;2.58;;;;;;;5.90;91.08;100113.38;5011745;28;20120;-67
2022/01/06 02:07:40;;;;;;;7.97;3.22;;;;;;;5.86;91.49;100101.13;5010738;28;20049;-67
2022/01/06 02:10:09;;;;;;;6.95;2.75;;;;;;;5.83;90.65;100114.38;5011210;28;20275;-67
2022/01/06 02:12:37;;;;;;;7.03;3.40;;;;;;;5.82;90.80;100105.56;5011447;28;20029;-67
2022/01/06 02:15:07;;;;;;;8.90;3.70;;;;;;;5.69;91.23;100082.81;5011415;28;20434;-67
2022/01/06 02:17:34;;;;;;;7.05;2.92;;;;;;;5.68;92.29;100102.19;4999679;28;20088;-67
2022/01/06 02:20:01;;;;;;;7.00;2.83;;;;;;;5.69;92.45;100103.94;5011420;28;20080;-67
2022/01/06 02:22:27;;;;;;;8.85;2.88;;;;;;;5.65;92.78;100107.50;5011651;28;20029;-67
2022/01/06 02:24:53;;;;;;;7.88;3.13;;;;;;;5.69;93.34;100113.59;5010945;28;20038;-68
2022/01/06 02:27:20;;;;;;;9.48;3.70;;;;;;;5.70;92.82;100110.09;5010286;28;20030;-68
2022/01/06 02:29:52;;;;;;;6.53;2.97;;;;;;;5.66;93.75;100118.94;5011003;28;20034;-68
2022/01/06 02:32:19;;;;;;;6.00;3.30;;;;;;;5.66;93.84;100121.56;5003154;28;20074;-67
2022/01/06 02:34:46;;;;;;;10.30;3.58;;;;;;;5.63;94.08;100119.84;4983447;28;20112;-67
2022/01/06 02:37:13;;;;;;;6.30;3.67;;;;;;;5.64;94.67;100111.03;5010529;28;20033;-67
2022/01/06 02:39:39;;;;;;;6.63;3.25;;;;;;;5.58;94.36;100116.38;5011210;28;20022;-67
2022/01/06 02:42:06;;;;;;;6.15;3.38;;;;;;;5.34;95.38;100096.41;5010424;28;20057;-67
2022/01/06 02:44:31;;;;;;;6.70;3.17;;;;;;;5.33;96.11;100118.41;5010669;28;20110;-67
2022/01/06 02:46:57;;;;;;;4.95;3.10;;;;;;;5.31;97.33;100111.38;5009441;28;20029;-66
2022/01/06 02:49:22;;;;;;;4.80;2.72;;;;;;;5.33;97.62;100113.13;5011011;28;20101;-66
2022/01/06 02:51:48;;;;;;;6.75;3.50;;;;;;;5.38;97.66;100116.59;5010484;28;20034;-66
2022/01/06 02:54:14;;;;;;;6.88;2.80;;;;;;;5.37;97.88;100114.84;5010191;28;20461;-66
2022/01/06 02:56:42;;;;;;;5.78;2.90;;;;;;;5.27;98.62;100105.25;5009763;28;20050;-66
2022/01/06 02:59:08;;;;;;;6.38;2.78;;;;;;;5.35;98.93;100121.88;5010487;28;20030;-66
2022/01/06 03:01:43;;;;;;;4.93;2.85;;;;;;;5.21;99.59;100104.44;5010706;28;20056;-67
2022/01/06 03:04:11;;;;;;;9.68;3.40;;;;;;;5.40;99.69;100125.34;5008965;28;20033;-67
2022/01/06 03:06:37;;;;;;;6.78;2.85;;;;;;;5.28;100.00;100143.06;5010459;28;20054;-67
2022/01/06 03:09:03;;;;;;;10.80;3.15;;;;;;;5.24;100.00;100136.94;4998716;28;20026;-66
2022/01/06 03:11:28;;;;;;;5.88;2.83;;;;;;;5.24;100.00;100144.84;4990549;28;20033;-66
2022/01/06 03:13:55;;;;;;;6.25;3.03;;;;;;;5.23;100.00;100145.75;4990178;28;20026;-66
2022/01/06 03:16:20;;;;;;;5.68;2.97;;;;;;;5.19;100.00;100146.66;4990632;28;20061;-66
2022/01/06 03:18:46;;;;;;;14.52;3.45;;;;;;;5.22;100.00;100143.97;4992643;28;20069;-66
2022/01/06 03:21:12;;;;;;;7.50;2.90;;;;;;;5.27;100.00;100158.00;4990341;28;20030;-66
2022/01/06 03:23:38;;;;;;;12.93;3.47;;;;;;;5.29;100.00;100161.50;4990042;28;20027;-66
2022/01/06 03:26:03;;;;;;;8.50;3.70;;;;;;;5.30;100.00;100163.25;4990737;28;20030;-67
2022/01/06 03:28:29;;;;;;;9.98;4.03;;;;;;;5.28;100.00;100165.03;5000937;28;20505;-67
2022/01/06 03:30:54;;;;;;;9.32;3.92;;;;;;;5.23;100.00;100166.84;5010061;28;20367;-67
2022/01/06 03:33:20;;;;;;;6.90;3.30;;;;;;;5.18;100.00;100167.75;4995708;28;20392;-67
2022/01/06 03:35:45;;;;;;;10.00;3.88;;;;;;;5.15;100.00;100175.72;4990450;28;20109;-67
2022/01/06 03:38:11;;;;;;;8.82;2.85;;;;;;;5.14;100.00;100172.19;4989317;28;20034;-67
2022/01/06 03:40:37;;;;;;;7.32;3.05;;;;;;;5.13;100.00;100175.72;4990769;28;20034;-67
2022/01/06 03:43:02;;;;;;;7.95;3.15;;;;;;;5.07;100.00;100174.91;5003040;28;20482;-67
2022/01/06 03:45:28;;;;;;;10.00;3.63;;;;;;;5.00;100.00;100178.47;5009538;28;20691;-67
2022/01/06 03:47:53;;;;;;;11.50;3.83;;;;;;;5.04;100.00;100181.06;5009469;28;20018;-67
2022/01/06 03:50:19;;;;;;;12.73;3.80;;;;;;;4.97;100.00;100174.09;5009528;28;20026;-67
2022/01/06 03:52:45;;;;;;;7.30;3.45;;;;;;;5.10;100.00;100191.56;4991721;28;20371;-67
2022/01/06 03:55:14;;;;;;;7.43;3.90;;;;;;;5.08;100.00;100188.06;5009868;28;20034;-67
2022/01/06 03:57:39;;;;;;;8.18;3.83;;;;;;;4.97;100.00;100171.47;5009380;28;20056;-67
2022/01/06 04:00:08;;;;;;;8.80;4.18;;;;;;;5.03;100.00;100184.59;4992336;28;20065;-67
2022/01/06 04:02:34;;;;;;;10.32;4.20;;;;;;;5.06;100.00;100195.09;5009420;28;20433;-67
2022/01/06 04:05:02;;;;;;;13.05;4.20;;;;;;;5.05;100.00;100196.00;5010174;28;20033;-67
2022/01/06 04:07:27;;;;;;;7.47;4.50;;;;;;;5.03;100.00;100192.50;5009307;28;20169;-66
2022/01/06 04:09:52;;;;;;;13.23;4.85;;;;;;;5.01;100.00;100201.28;5009561;28;20101;-66
2022/01/06 04:12:18;;;;;;;10.40;4.50;;;;;;;4.99;100.00;100203.94;5009689;28;20076;-66
2022/01/06 04:14:43;;;;;;;9.45;4.07;;;;;;;5.04;100.00;100212.69;5008975;28;20049;-66
2022/01/06 04:17:09;;;;;;;4.95;3.67;;;;;;;5.13;100.00;100215.28;5009562;28;20030;-66
2022/01/06 04:19:35;;;;;;;9.63;4.55;;;;;;;5.09;100.00;100210.88;5009871;28;20025;-66
2022/01/06 04:22:01;;;;;;;8.27;3.97;;;;;;;5.06;100.00;100213.56;5009128;28;20076;-66
2022/01/06 04:24:26;;;;;;;10.65;4.65;;;;;;;5.14;100.00;100216.16;5007942;28;20033;-66
2022/01/06 04:26:51;;;;;;;8.95;4.85;;;;;;;5.07;100.00;100223.19;4994725;28;20537;-66
2022/01/06 04:29:17;;;;;;;13.70;5.07;;;;;;;5.04;100.00;100212.69;4993964;28;20504;-67
2022/01/06 04:31:42;;;;;;;15.18;4.32;;;;;;;5.13;100.00;100217.91;5003053;28;20370;-67
2022/01/06 04:34:08;;;;;;;8.73;4.90;;;;;;;5.16;100.00;100220.50;5001213;28;20022;-66
2022/01/06 04:36:33;;;;;;;17.88;5.32;;;;;;;5.12;100.00;100213.50;4999278;28;20022;-66
2022/01/06 04:38:59;;;;;;;10.07;5.45;;;;;;;5.13;100.00;100217.91;4975822;28;20034;-67
2022/01/06 04:41:24;;;;;;;15.70;5.13;;;;;;;5.08;100.00;100217.06;4976107;28;20517;-67
2022/01/06 04:43:50;;;;;;;15.13;4.97;;;;;;;4.91;100.00;100200.47;4993424;28;20034;-67
2022/01/06 04:46:15;;;;;;;8.85;4.38;;;;;;;4.96;100.00;100226.78;4993695;28;20076;-67
2022/01/06 04:48:41;;;;;;;11.20;5.20;;;;;;;4.93;100.00;100225.06;4993377;28;20029;-67
2022/01/06 04:51:07;;;;;;;10.55;4.72;;;;;;;4.91;100.00;100231.25;4993341;28;20034;-67
2022/01/06 04:53:33;;;;;;;14.93;5.15;;;;;;;4.88;100.00;100226.88;4998541;28;20501;-67
2022/01/06 04:55:59;;;;;;;20.90;5.00;;;;;;;4.95;100.00;100239.13;5004449;28;20033;-67
2022/01/06 04:58:25;;;;;;;10.85;5.13;;;;;;;4.92;100.00;100244.41;5012402;28;20476;-67
2022/01/06 05:00:51;;;;;;;18.60;5.47;;;;;;;4.82;100.00;100219.00;5012972;28;20113;-67
2022/01/06 05:03:17;;;;;;;12.40;5.18;;;;;;;4.82;100.00;100224.28;5012750;28;20040;-67
2022/01/06 05:05:42;;;;;;;8.02;4.68;;;;;;;4.86;100.00;100244.44;5002997;28;20073;-67
2022/01/06 05:08:08;;;;;;;11.73;4.75;;;;;;;4.86;100.00;100240.94;4992680;28;20449;-67
2022/01/06 05:10:33;;;;;;;13.07;6.10;;;;;;;4.83;100.00;100247.09;4995668;28;20467;-67
2022/01/06 05:12:59;;;;;;;9.43;4.43;;;;;;;4.78;100.00;100251.50;4991643;28;20110;-68
2022/01/06 05:15:24;;;;;;;12.18;4.43;;;;;;;4.92;100.00;100254.97;4992988;28;20019;-68
2022/01/06 05:17:49;;;;;;;9.43;3.92;;;;;;;4.83;100.00;100255.00;4992091;28;20033;-68
2022/01/06 05:20:15;;;;;;;11.27;4.72;;;;;;;4.79;100.00;100252.41;4992433;28;20030;-67
2022/01/06 05:22:45;;;;;;;13.00;4.40;;;;;;;4.77;100.00;100252.41;4992779;28;20609;-67
2022/01/06 05:25:13;;;;;;;7.45;4.53;;;;;;;4.70;100.00;100250.69;4993071;28;20037;-67
2022/01/06 05:27:38;;;;;;;10.77;4.90;;;;;;;4.73;100.00;100257.69;4992191;28;20033;-67
2022/01/06 05:30:06;;;;;;;10.90;4.85;;;;;;;4.77;100.00;100265.59;4992862;28;20034;-67
2022/01/06 05:32:31;;;;;;;13.48;4.50;;;;;;;4.81;100.00;100274.34;5009392;28;20050;-67
2022/01/06 05:34:57;;;;;;;8.98;4.75;;;;;;;4.72;100.00;100277.91;5011818;28;20049;-67
2022/01/06 05:37:22;;;;;;;10.55;4.47;;;;;;;4.69;100.00;100283.19;5010367;28;20540;-67
2022/01/06 05:39:47;;;;;;;9.23;5.78;;;;;;;4.70;100.00;100274.41;5012144;28;20550;-67
2022/01/06 05:42:13;;;;;;;10.40;4.47;;;;;;;4.60;100.00;100256.00;4994449;28;20108;-67
2022/01/06 05:44:41;;;;;;;15.35;6.18;;;;;;;4.67;100.00;100274.41;4994498;28;20508;-67
2022/01/06 05:47:06;;;;;;;14.23;4.63;;;;;;;4.71;100.00;100281.41;5011839;28;20374;-67
2022/01/06 05:49:33;;;;;;;10.30;5.28;;;;;;;4.69;100.00;100291.09;5011836;28;20033;-68
2022/01/06 05:51:58;;;;;;;12.43;5.03;;;;;;;4.73;100.00;100291.94;5011505;28;20037;-67
2022/01/06 05:54:24;;;;;;;8.80;4.47;;;;;;;4.77;100.00;100297.22;5011963;28;20026;-67
2022/01/06 05:56:50;;;;;;;14.05;5.53;;;;;;;4.82;100.00;100295.41;5011457;28;20072;-67
2022/01/06 05:59:15;;;;;;;9.38;5.13;;;;;;;4.66;100.00;100283.19;5011499;28;20033;-67
2022/01/06 06:01:40;;;;;;;14.65;6.10;;;;;;;4.65;100.00;100281.44;5011629;28;20025;-67
2022/01/06 06:04:06;;;;;;;10.90;4.88;;;;;;;4.79;100.00;100295.44;5011763;28;20079;-67
2022/01/06 06:06:31;;;;;;;13.68;5.63;;;;;;;4.83;100.00;100281.34;5011554;28;20049;-67
2022/01/06 06:08:57;;;;;;;13.80;6.18;;;;;;;4.87;100.00;100298.03;5010457;28;20064;-67
2022/01/06 06:11:22;;;;;;;9.70;5.80;;;;;;;4.86;100.00;100302.41;5011432;28;20033;-67
2022/01/06 06:13:48;;;;;;;10.38;5.45;;;;;;;4.79;100.00;100300.72;5011669;28;20385;-67
2022/01/06 06:16:13;;;;;;;8.77;4.88;;;;;;;4.73;100.00;100306.00;5011718;28;20156;-67
2022/01/06 06:18:38;;;;;;;11.75;5.28;;;;;;;4.71;100.00;100315.66;5008818;28;20453;-67
2022/01/06 06:21:06;;;;;;;9.90;4.72;;;;;;;4.71;100.00;100315.66;4994111;28;20474;-67
2022/01/06 06:23:31;;;;;;;11.00;5.97;;;;;;;4.68;100.00;100306.91;5011193;28;20094;-67
2022/01/06 06:25:57;;;;;;;11.13;5.60;;;;;;;4.73;100.00;100321.81;5011547;28;20037;-67
2022/01/06 06:28:22;;;;;;;14.68;6.10;;;;;;;4.71;100.00;100317.44;5011060;28;20109;-67
2022/01/06 06:30:48;;;;;;;10.82;5.93;;;;;;;4.71;100.00;100323.56;5007826;28;20032;-67
2022/01/06 06:33:13;;;;;;;9.50;5.35;;;;;;;4.78;100.00;100317.38;4997493;28;20109;-67
2022/01/06 06:35:39;;;;;;;13.70;6.20;;;;;;;5.05;100.00;100332.19;4973532;28;20029;-67
2022/01/06 06:38:04;;;;;;;14.43;6.35;;;;;;;5.15;100.00;100336.53;4991617;28;20034;-67
2022/01/06 06:40:30;;;;;;;12.50;5.97;;;;;;;5.12;100.00;100333.91;5011024;28;20080;-67
2022/01/06 06:42:56;;;;;;;15.90;6.50;;;;;;;4.89;100.00;100349.81;5008712;28;20034;-67
2022/01/06 06:45:23;;;;;;;10.25;5.50;;;;;;;4.77;100.00;100334.09;5011155;28;20097;-67
2022/01/06 06:47:49;;;;;;;10.93;5.78;;;;;;;4.66;100.00;100335.03;5010114;28;20038;-67
2022/01/06 06:50:16;;;;;;;9.88;5.50;;;;;;;4.70;100.00;100336.75;5010389;28;20386;-67
2022/01/06 06:52:45;;;;;;;16.98;5.55;;;;;;;4.69;100.00;100335.00;4992890;28;20441;-67
2022/01/06 06:55:12;;;;;;;19.60;5.32;;;;;;;4.82;100.00;100334.94;5010473;28;20409;-67
2022/01/06 06:57:38;;;;;;;9.93;4.40;;;;;;;5.14;100.00;100337.44;5010702;28;20413;-67
2022/01/06 07:00:05;;;;;;;14.68;7.18;;;;;;;5.23;100.00;100351.44;5010772;28;20030;-67
2022/01/06 07:02:31;;;;;;;33.67;7.55;;;;;;;5.27;100.00;100342.59;5009965;28;20581;-67
2022/01/06 07:04:57;;;;;;;12.27;5.72;;;;;;;5.29;100.00;100364.56;4992846;28;20495;-67
2022/01/06 07:07:23;;;;;;;14.82;5.85;;;;;;;5.27;100.00;100353.16;5002571;28;20071;-67
2022/01/06 07:09:48;;;;;;;13.82;6.25;;;;;;;5.26;100.00;100361.06;5010683;28;20127;-67
2022/01/06 07:12:14;;;;;;;14.18;6.75;;;;;;;4.92;100.00;100365.66;5010499;28;20061;-67
2022/01/06 07:14:39;;;;;;;11.20;5.82;;;;;;;4.76;100.00;100363.94;5009956;28;20036;-67
2022/01/06 07:17:05;;;;;;;10.93;6.03;;;;;;;4.59;100.00;100355.25;4991162;28;20064;-67
2022/01/06 07:19:30;;;;;;;10.40;5.78;;;;;;;4.58;100.00;100345.56;4990860;28;20038;-67
2022/01/06 07:21:56;;;;;;;13.30;5.85;;;;;;;4.76;100.00;100369.22;4990891;28;20052;-67
2022/01/06 07:24:22;;;;;;;13.40;5.30;;;;;;;4.72;100.00;100383.28;5002250;28;20521;-67
2022/01/06 07:26:47;;;;;;;11.98;6.22;;;;;;;4.75;100.00;100378.00;5009806;28;20108;-67
2022/01/06 07:29:13;;;;;;;16.02;6.28;;;;;;;4.76;100.00;100381.53;5010226;28;20033;-67
2022/01/06 07:31:38;;;;;;;12.15;6.82;;;;;;;4.70;100.00;100381.53;5009343;28;20064;-67
2022/01/06 07:34:03;;;;;;;14.38;5.68;;;;;;;4.66;100.00;100372.75;4990338;28;20034;-67
2022/01/06 07:36:29;;;;;;;12.25;4.90;;;;;;;4.61;100.00;100385.06;4990150;28;20500;-67
2022/01/06 07:38:54;;;;;;;15.30;7.32;;;;;;;4.54;100.00;100377.19;4972447;28;20051;-67
2022/01/06 07:41:20;;;;;;;34.03;16.50;;;;;;;4.60;100.00;100379.81;5002151;28;20500;-67
2022/01/06 07:43:45;;;;;;;12.25;7.05;;;;;;;4.68;100.00;100393.84;5009916;28;20048;-67
2022/01/06 07:46:11;;;;;;;20.17;11.18;;;;;;;4.66;100.00;100399.09;5009821;28;20072;-67
2022/01/06 07:48:55;;;;;;;13.02;6.10;;;;;;;4.72;100.00;100401.75;5009600;28;20026;-67
2022/01/06 07:51:21;;;;;;;12.68;6.25;;;;;;;4.71;100.00;100399.97;5009662;28;20026;-67
2022/01/06 07:53:46;;;;;;;12.10;5.85;;;;;;;4.72;100.00;100404.38;5009348;28;20462;-67
2022/01/06 07:56:12;;;;;;;12.20;5.40;;;;;;;4.89;100.00;100402.53;5009930;28;20032;-67
2022/01/06 07:58:37;;;;;;;11.90;5.95;;;;;;;4.85;100.00;100413.09;5009297;28;20036;-67
2022/01/06 08:01:03;;;;;;;13.05;6.03;;;;;;;4.79;100.00;100408.75;5009385;28;20036;-67
2022/01/06 08:03:28;;;;;;;13.38;5.68;;;;;;;4.75;100.00;100404.34;5009778;28;20037;-67
2022/01/06 08:05:54;;;;;;;10.98;4.85;;;;;;;4.74;100.00;100407.88;5009398;28;20125;-67
2022/01/06 08:08:19;;;;;;;14.15;6.18;;;;;;;4.84;100.00;100408.72;5009611;28;20033;-67
2022/01/06 08:10:45;;;;;;;13.57;5.72;;;;;;;4.86;100.00;100421.00;5009403;28;20024;-67
2022/01/06 08:13:10;;;;;;;12.10;6.68;;;;;;;4.69;100.00;100408.78;5007490;28;20056;-67
2022/01/06 08:15:36;;;;;;;14.27;7.20;;;;;;;5.15;100.00;100416.50;5010129;28;20025;-67
2022/01/06 08:18:01;;;;;;;10.57;6.88;;;;;;;5.23;100.00;100419.97;5000658;28;20471;-67
2022/01/06 08:20:27;;;;;;;15.45;8.57;;;;;;;5.35;100.00;100424.31;4989349;28;20078;-67
2022/01/06 08:22:52;;;;;;;15.80;8.05;;;;;;;5.39;100.00;100426.94;4986192;28;20440;-67
2022/01/06 08:25:18;;;;;;;13.73;6.50;;;;;;;5.47;100.00;100424.22;5009353;28;20033;-67
2022/01/06 08:27:43;;;;;;;15.52;7.10;;;;;;;5.37;100.00;100420.78;5009110;28;20032;-67
2022/01/06 08:30:09;;;;;;;13.88;6.45;;;;;;;5.37;100.00;100426.06;5008933;28;20113;-67
2022/01/06 08:32:35;;;;;;;15.30;5.60;;;;;;;5.39;100.00;100424.28;5001797;28;20065;-67
2022/01/06 08:35:00;;;;;;;10.07;4.93;;;;;;;5.42;100.00;100430.44;4989648;28;20034;-67
2022/01/06 08:37:26;;;;;;;15.68;6.95;;;;;;;5.47;100.00;100431.28;4989305;28;20065;-67
2022/01/06 08:39:51;;;;;;;19.85;7.05;;;;;;;5.24;100.00;100434.91;5006174;28;20022;-67
2022/01/06 08:42:17;;;;;;;19.60;8.32;;;;;;;5.37;100.00;100436.59;5008830;28;20105;-66
2022/01/06 08:44:42;;;;;;;18.13;8.50;;;;;;;5.63;100.00;100446.13;5008941;28;20442;-66
2022/01/06 08:47:09;;;;;;;18.77;8.18;;;;;;;5.70;100.00;100448.72;5009464;28;20056;-66
2022/01/06 08:49:35;;;;;;;14.65;8.05;;;;;;;5.74;100.00;100452.22;4991441;28;20448;-67
2022/01/06 08:52:00;;;;;;;14.00;7.10;;;;;;;5.73;100.00;100437.28;5009422;28;20019;-67
2022/01/06 08:54:26;;;;;;;16.48;6.82;;;;;;;5.76;100.00;100445.19;4999367;28;20026;-67
2022/01/06 08:56:51;;;;;;;15.93;6.65;;;;;;;5.80;100.00;100439.00;4988600;28;20030;-67
2022/01/06 08:59:17;;;;;;;15.13;7.03;;;;;;;5.75;100.00;100435.53;4989655;28;20038;-67
2022/01/06 09:01:42;;;;;;;12.25;5.70;;;;;;;5.88;100.00;100448.63;5000259;28;20488;-67
2022/01/06 09:04:08;;;;;;;13.93;8.02;;;;;;;5.92;100.00;100452.13;5009306;28;20037;-67
2022/01/06 09:06:33;;;;;;;10.43;7.45;;;;;;;5.96;100.00;100451.25;5008781;28;20034;-67
2022/01/06 09:08:59;;;;;;;16.48;6.47;;;;;;;6.07;100.00;100454.66;5007057;28;20508;-67
2022/01/06 09:11:24;;;;;;;11.98;6.05;;;;;;;6.18;100.00;100452.81;4992641;28;20398;-70
2022/01/06 09:13:50;;;;;;;11.38;5.85;;;;;;;6.28;100.00;100451.84;4993156;28;20026;-69
2022/01/06 09:16:15;;;;;;;13.00;6.78;;;;;;;6.37;100.00;100449.16;4993405;28;20026;-67
2022/01/06 09:18:41;;;;;;;14.45;7.72;;;;;;;6.56;100.00;100456.00;4991934;28;20022;-69
2022/01/06 09:21:08;;;;;;;15.20;7.28;;;;;;;6.81;100.00;100452.22;4993048;28;20053;-68
2022/01/06 09:23:34;;;;;;;16.27;7.18;;;;;;;7.29;100.00;100451.66;4993377;28;20033;-68
2022/01/06 09:25:59;;;;;;;14.52;7.07;;;;;;;7.55;98.95;100454.84;4998059;28;20014;-68
2022/01/06 09:28:25;;;;;;;13.30;6.10;;;;;;;7.36;95.20;100458.66;5012222;28;20033;-68
2022/01/06 09:30:51;;;;;;;13.65;7.65;;;;;;;7.31;95.79;100464.88;5012080;28;20030;-68
2022/01/06 09:33:22;;;;;;;15.15;5.93;;;;;;;7.23;94.25;100446.44;4998341;28;20037;-70
2022/01/06 09:35:48;;;;;;;17.10;6.95;;;;;;;7.22;92.51;100460.56;4992620;28;20451;-67
2022/01/06 09:38:15;;;;;;;11.75;7.28;;;;;;;7.16;93.18;100465.94;4992295;28;20033;-68
2022/01/06 09:40:42;;;;;;;15.68;6.85;;;;;;;6.90;92.62;100446.84;4994502;28;20026;-68
2022/01/06 09:43:11;;;;;;;17.35;7.03;;;;;;;7.04;95.03;100463.44;5012016;28;20478;-67
2022/01/06 09:45:37;;;;;;;18.00;8.27;;;;;;;8.68;98.26;100454.88;4994519;28;20497;-67
2022/01/06 09:48:04;;;;;;;16.52;7.90;;;;;;;10.62;88.32;100453.22;5011816;28;20022;-68
2022/01/06 09:50:30;;;;;;;14.43;6.80;;;;;;;12.06;73.06;100448.13;5009509;28;20497;-71
2022/01/06 09:52:55;;;;;;;9.98;5.75;;;;;;;13.33;65.40;100463.34;4993812;28;20116;-68
2022/01/06 09:55:21;;;;;;;12.63;5.68;;;;;;;14.46;61.40;100464.25;5011540;28;20036;-67
2022/01/06 09:57:55;;;;;;;10.55;5.63;;;;;;;15.36;55.65;100471.03;5011698;28;20410;-67
2022/01/06 10:00:21;;;;;;;9.55;5.15;;;;;;;15.58;52.69;100469.13;5011443;28;20026;-67
2022/01/06 10:02:53;;;;;;;13.18;5.60;;;;;;;15.60;52.41;100469.09;5011918;28;20036;-69
2022/01/06 10:05:24;;;;;;;8.20;4.60;;;;;;;16.37;51.41;100474.31;5011745;28;20041;-66
2022/01/06 10:07:53;;;;;;;8.90;4.97;;;;;;;17.23;49.27;100472.59;5010649;28;20350;-68
2022/01/06 10:10:27;;;;;;;8.88;4.82;;;;;;;17.62;47.22;100483.06;5012124;28;20466;-66
2022/01/06 10:12:57;;;;;;;9.70;4.43;;;;;;;17.79;46.41;100477.66;5011755;28;20104;-68
2022/01/06 10:15:25;;;;;;;9.50;5.22;;;;;;;17.70;47.14;100468.25;5011735;28;20029;-70
2022/01/06 10:17:50;;;;;;;10.40;4.78;;;;;;;17.50;45.24;100475.66;5003991;28;20410;-69
2022/01/06 10:20:20;;;;;;;9.45;4.93;;;;;;;15.85;49.50;100472.34;4991386;28;20034;-67
2022/01/06 10:22:48;;;;;;;12.40;4.10;;;;;;;16.12;50.06;100476.41;4990718;28;20033;-68
2022/01/06 10:25:15;;;;;;;8.13;3.78;;;;;;;16.22;48.42;100475.03;4997854;28;20018;-68
2022/01/06 10:27:41;;;;;;;6.88;3.80;;;;;;;14.84;49.52;100487.63;4989796;28;20037;-68
2022/01/06 10:30:08;;;;;;;7.50;4.95;;;;;;;15.34;49.74;100478.25;5011140;28;20452;-69
2022/01/06 10:32:34;;;;;;;11.85;3.35;;;;;;;16.05;48.27;100471.41;5003404;28;20022;-69
2022/01/06 10:35:03;;;;;;;9.68;3.25;;;;;;;16.55;46.12;100478.81;4991319;28;20492;-68
2022/01/06 10:37:42;;;;;;;5.57;2.60;;;;;;;17.47;47.04;100482.09;4990320;28;20034;-69
2022/01/06 10:40:11;;;;;;;8.90;2.95;;;;;;;17.51;44.03;100470.19;4990009;28;20038;-69
2022/01/06 10:42:39;;;;;;;6.13;3.17;;;;;;;18.19;43.72;100482.56;5008357;28;20053;-70
2022/01/06 10:45:13;;;;;;;9.05;3.78;;;;;;;18.45;43.12;100473.03;5010938;28;20395;-68
2022/01/06 10:47:42;;;;;;;7.93;3.17;;;;;;;18.63;43.49;100471.97;5005145;28;20033;-68
2022/01/06 10:50:26;;;;;;;5.78;3.00;;;;;;;18.07;42.23;100472.50;4991140;28;20546;-67
2022/01/06 10:53:00;;;;;;;9.77;3.15;;;;;;;17.82;43.00;100480.19;4990485;28;20059;-67
2022/01/06 10:55:33;;;;;;;4.93;2.60;;;;;;;16.64;44.24;100474.75;4991316;28;20076;-67
2022/01/06 10:58:03;;;;;;;7.13;2.80;;;;;;;15.57;46.74;100480.81;4990342;28;20617;-67
2022/01/06 11:00:43;;;;;;;9.35;3.13;;;;;;;14.24;49.92;100479.41;4991789;28;20034;-67
2022/01/06 11:03:17;;;;;;;8.68;3.38;;;;;;;12.59;53.36;100481.94;4997228;28;20038;-67
2022/01/06 11:05:46;;;;;;;9.35;3.45;;;;;;;11.81;56.59;100489.81;4990897;28;20047;-68
2022/01/06 11:08:13;;;;;;;8.20;3.60;;;;;;;11.54;59.81;100490.59;4990393;28;20030;-67
2022/01/06 11:10:46;;;;;;;8.57;3.85;;;;;;;10.71;62.57;100490.22;4990425;28;20471;-67
2022/01/06 11:13:12;;;;;;;8.82;3.72;;;;;;;10.49;65.13;100475.72;4991041;28;20033;-67
2022/01/06 11:15:38;;;;;;;8.90;4.03;;;;;;;10.33;65.53;100482.31;4990760;28;20034;-67
2022/01/06 11:18:05;;;;;;;8.15;3.70;;;;;;;9.99;66.69;100492.84;4990146;28;20053;-67
2022/01/06 11:20:31;;;;;;;9.30;3.95;;;;;;;9.67;67.39;100505.09;4973129;28;20109;-67
2022/01/06 11:22:59;;;;;;;10.32;3.40;;;;;;;9.76;69.74;100500.44;4990253;28;20034;-67
2022/01/06 11:25:36;;;;;;;10.95;3.50;;;;;;;9.87;70.83;100487.78;4990671;28;20041;-67
2022/01/06 11:28:10;;;;;;;8.65;4.95;;;;;;;10.11;70.39;100489.94;4990782;28;20473;-67
2022/01/06 11:30:45;;;;;;;12.38;4.72;;;;;;;10.50;70.58;100490.75;4993005;28;20026;-67